Time;durP1;ratioP1;P1;durP2;ratioP2;P2;SDS_P1;SDS_P2;PMS_P1;PMS_P2;Temp;Humidity;BMP_temperature;BMP_pressure;BME280_temperature;BME280_humidity;BME280_pressure;Samples;Min_cycle;Max_cycle;Signal;HPM_P1;HPM_P2
2022/08/11 00:01:27;;;;;;;4.57;2.20;;;17.90;96.40;;;;;;5035995;28;20194;-86
2022/08/11 00:03:58;;;;;;;2.57;2.30;;;17.80;96.50;;;;;;5028309;28;20190;-86
2022/08/11 00:06:44;;;;;;;2.67;2.00;;;17.80;96.80;;;;;;5031566;28;20199;-85
2022/08/11 00:09:15;;;;;;;3.30;1.80;;;17.70;97.30;;;;;;5037909;28;20220;-86
2022/08/11 00:11:50;;;;;;;3.07;1.83;;;17.70;97.70;;;;;;5034438;28;20193;-86
2022/08/11 00:14:27;;;;;;;2.20;2.00;;;17.70;97.60;;;;;;5051938;28;20182;-86
2022/08/11 00:17:03;;;;;;;4.00;2.37;;;17.60;97.70;;;;;;5051396;28;20177;-85
2022/08/11 00:19:40;;;;;;;2.87;2.10;;;17.50;98.20;;;;;;5048606;28;20189;-86
2022/08/11 00:22:07;;;;;;;2.57;2.20;;;17.40;98.30;;;;;;5046157;28;20289;-86
2022/08/11 00:24:39;;;;;;;3.23;2.33;;;17.30;98.50;;;;;;5027185;28;21631;-86
2022/08/11 00:27:05;;;;;;;2.50;2.30;;;17.20;98.70;;;;;;5023051;28;20268;-86
2022/08/11 00:29:35;;;;;;;3.93;2.00;;;17.20;99.00;;;;;;5034345;28;20182;-86
2022/08/11 00:32:04;;;;;;;2.17;1.80;;;17.10;99.20;;;;;;5025553;28;20213;-86
2022/08/11 00:34:34;;;;;;;2.17;1.97;;;17.10;99.20;;;;;;5035666;28;20271;-85
2022/08/11 00:37:07;;;;;;;2.83;2.23;;;17.00;99.50;;;;;;5049204;28;20231;-86
2022/08/11 00:39:50;;;;;;;3.20;2.10;;;17.00;99.70;;;;;;5046444;28;20197;-86
2022/08/11 00:42:26;;;;;;;2.40;2.07;;;16.90;99.90;;;;;;5038018;28;20700;-86
2022/08/11 00:44:52;;;;;;;2.50;2.30;;;16.80;99.90;;;;;;5052051;28;20197;-86
2022/08/11 00:47:30;;;;;;;2.93;2.27;;;16.80;99.90;;;;;;5035727;28;20206;-86
2022/08/11 00:50:15;;;;;;;2.60;2.27;;;16.80;99.90;;;;;;5035487;28;20233;-86
2022/08/11 00:53:07;;;;;;;2.30;2.10;;;16.70;99.90;;;;;;5035238;28;20200;-86
2022/08/11 00:56:06;;;;;;;3.63;2.17;;;16.70;99.90;;;;;;5035397;28;20219;-86
2022/08/11 00:58:38;;;;;;;2.83;2.10;;;16.60;99.90;;;;;;5035463;28;20273;-85
2022/08/11 01:01:16;;;;;;;2.17;1.97;;;16.50;99.90;;;;;;5051656;28;20674;-86
2022/08/11 01:03:42;;;;;;;2.90;2.03;;;16.50;99.90;;;;;;5051729;28;20193;-86
2022/08/11 01:06:32;;;;;;;3.00;2.27;;;16.50;99.90;;;;;;5035499;28;20318;-86
2022/08/11 01:09:13;;;;;;;2.60;2.40;;;16.40;99.90;;;;;;5035218;28;20315;-86
2022/08/11 01:12:07;;;;;;;3.50;2.13;;;16.40;99.90;;;;;;5035054;28;20198;-85
2022/08/11 01:14:57;;;;;;;3.37;2.07;;;16.40;99.90;;;;;;5035111;28;20170;-86
2022/08/11 01:18:11;;;;;;;2.67;2.40;;;16.30;99.90;;;;;;5034600;28;20638;-86
2022/08/11 01:20:56;;;;;;;2.93;2.40;;;16.30;99.90;;;;;;5035130;28;20224;-85
2022/08/11 01:23:59;;;;;;;2.40;2.20;;;16.30;99.90;;;;;;5051067;28;20182;-85
2022/08/11 01:27:13;;;;;;;4.97;2.40;;;16.20;99.90;;;;;;5034770;28;20186;-86
2022/08/11 01:30:09;;;;;;;4.97;2.30;;;16.20;99.90;;;;;;5016179;28;20190;-86
2022/08/11 01:33:21;;;;;;;2.40;2.10;;;16.10;99.90;;;;;;5051284;28;20251;-86
2022/08/11 01:36:28;;;;;;;2.57;2.33;;;16.10;99.90;;;;;;5030065;28;20190;-86
2022/08/11 01:39:00;;;;;;;2.83;2.20;;;16.00;99.90;;;;;;5041901;28;20174;-86
2022/08/11 01:45:10;;;;;;;3.03;2.37;;;15.90;99.90;;;;;;5049481;28;20186;-85
2022/08/11 01:47:51;;;;;;;3.60;2.50;;;15.90;99.90;;;;;;5031350;28;20206;-86
2022/08/11 01:50:56;;;;;;;4.20;2.30;;;15.90;99.90;;;;;;5018338;28;20260;-86
2022/08/11 01:53:34;;;;;;;3.40;2.10;;;15.90;99.90;;;;;;5030629;28;20230;-86
2022/08/11 01:56:15;;;;;;;2.97;2.43;;;15.90;99.90;;;;;;5034354;28;20165;-86
2022/08/11 01:59:05;;;;;;;2.37;2.17;;;15.90;99.90;;;;;;5015223;28;20171;-86
2022/08/11 02:01:39;;;;;;;2.57;2.37;;;15.80;99.90;;;;;;5024443;28;20195;-86
2022/08/11 02:04:33;;;;;;;2.60;2.40;;;15.70;99.90;;;;;;5031338;28;20260;-86
2022/08/11 02:07:18;;;;;;;5.30;2.43;;;15.70;99.90;;;;;;5034432;28;20251;-85
2022/08/11 02:09:44;;;;;;;2.70;2.30;;;15.80;99.90;;;;;;5034969;28;20166;-85
2022/08/11 02:12:48;;;;;;;3.93;2.17;;;15.70;99.90;;;;;;5034510;28;20560;-86
2022/08/11 02:15:28;;;;;;;3.73;2.43;;;15.70;99.90;;;;;;5032110;28;20194;-86
2022/08/11 02:18:05;;;;;;;2.73;2.47;;;15.80;99.90;;;;;;5050662;28;20292;-86
2022/08/11 02:23:38;;;;;;;2.87;2.33;;;15.60;99.90;;;;;;5051422;28;20186;-86
2022/08/11 02:26:15;;;;;;;2.90;2.40;;;15.70;99.90;;;;;;5050551;28;20201;-85
2022/08/11 02:28:53;;;;;;;3.07;2.30;;;15.60;99.90;;;;;;5015102;28;20209;-86
2022/08/11 02:34:31;;;;;;;2.67;2.30;;;15.70;99.90;;;;;;5031100;28;20182;-86
2022/08/11 02:37:23;;;;;;;4.20;2.57;;;15.60;99.90;;;;;;5030696;28;20198;-85
2022/08/11 02:40:09;;;;;;;3.47;2.30;;;15.60;99.90;;;;;;5031020;28;20187;-86
2022/08/11 02:43:01;;;;;;;2.97;2.20;;;15.50;99.90;;;;;;5018089;28;20202;-86
2022/08/11 02:45:33;;;;;;;2.50;2.30;;;15.50;99.90;;;;;;5039898;28;20209;-85
2022/08/11 02:51:38;;;;;;;2.50;2.30;;;15.40;99.90;;;;;;5054198;28;20201;-85
2022/08/11 02:54:26;;;;;;;3.80;2.20;;;15.40;99.90;;;;;;5021801;28;20185;-85
2022/08/11 02:57:04;;;;;;;3.17;2.37;;;15.30;99.90;;;;;;5018045;28;20189;-86
2022/08/11 02:59:59;;;;;;;2.33;2.10;;;15.30;99.90;;;;;;5029017;28;20546;-86
2022/08/11 03:02:32;;;;;;;3.33;2.43;;;15.20;99.90;;;;;;5034551;28;20205;-86
2022/08/11 03:05:07;;;;;;;3.37;2.60;;;15.10;99.90;;;;;;5037358;28;20178;-86
2022/08/11 03:07:51;;;;;;;3.10;2.50;;;15.10;99.90;;;;;;5037383;28;20201;-86
2022/08/11 03:10:26;;;;;;;3.80;2.67;;;15.10;99.90;;;;;;5037006;28;20203;-86
2022/08/11 03:16:46;;;;;;;3.40;2.73;;;15.00;99.90;;;;;;5016302;28;20199;-86
2022/08/11 03:19:29;;;;;;;3.00;2.50;;;15.00;99.90;;;;;;5000190;28;20227;-86
2022/08/11 03:22:01;;;;;;;2.73;2.10;;;15.00;99.90;;;;;;5015070;28;20249;-85
2022/08/11 03:24:53;;;;;;;3.17;2.53;;;15.00;99.90;;;;;;5017135;28;20186;-85
2022/08/11 03:27:40;;;;;;;3.93;2.40;;;14.90;99.90;;;;;;5035368;28;20206;-86
2022/08/11 03:30:22;;;;;;;2.50;2.30;;;14.80;99.90;;;;;;5053509;28;20200;-85
2022/08/11 03:36:42;;;;;;;3.03;2.13;;;14.80;99.90;;;;;;5053468;28;20197;-85
2022/08/11 03:39:36;;;;;;;3.17;2.53;;;14.80;99.90;;;;;;5036685;28;20248;-85
2022/08/11 03:42:32;;;;;;;3.00;2.70;;;14.80;99.90;;;;;;5036794;28;20260;-85
2022/08/11 03:45:32;;;;;;;3.23;2.60;;;14.80;99.90;;;;;;5036789;28;20232;-85
2022/08/11 03:48:15;;;;;;;4.27;2.93;;;14.70;99.90;;;;;;5053972;28;20286;-85
2022/08/11 03:51:02;;;;;;;3.17;2.57;;;14.50;99.90;;;;;;5036427;28;20166;-86
2022/08/11 03:53:31;;;;;;;2.60;2.30;;;14.40;99.90;;;;;;5036614;28;20178;-85
2022/08/11 03:56:12;;;;;;;3.13;2.50;;;14.40;99.90;;;;;;5036674;28;20221;-85
2022/08/11 03:58:56;;;;;;;3.40;2.70;;;14.40;99.90;;;;;;5036567;28;20600;-85
2022/08/11 04:01:28;;;;;;;2.60;2.33;;;14.30;99.90;;;;;;5035113;28;20211;-85
2022/08/11 04:04:38;;;;;;;3.07;2.40;;;14.30;99.90;;;;;;5036279;28;20183;-85
2022/08/11 04:07:37;;;;;;;3.93;2.80;;;14.30;99.90;;;;;;5052788;28;20204;-85
2022/08/11 04:10:40;;;;;;;3.20;2.50;;;14.30;99.90;;;;;;5052675;28;20181;-85
2022/08/11 04:13:44;;;;;;;2.97;2.60;;;14.30;99.90;;;;;;5052737;28;20263;-85
2022/08/11 04:16:40;;;;;;;3.40;2.73;;;14.30;99.90;;;;;;5036164;28;20181;-85
2022/08/11 04:19:49;;;;;;;3.50;2.60;;;14.30;99.90;;;;;;5043106;28;20196;-86
2022/08/11 04:22:22;;;;;;;5.10;2.70;;;14.30;99.90;;;;;;5052550;28;20275;-86
2022/08/11 04:25:09;;;;;;;2.93;2.63;;;14.30;99.90;;;;;;5053157;28;20284;-86
2022/08/11 04:28:17;;;;;;;5.77;2.70;;;14.30;99.90;;;;;;5035554;28;20197;-86
2022/08/11 04:31:10;;;;;;;3.43;2.80;;;14.30;99.90;;;;;;5037078;28;20228;-86
2022/08/11 04:34:20;;;;;;;2.87;2.60;;;14.20;99.90;;;;;;5032569;28;20238;-86
2022/08/11 04:40:12;;;;;;;4.17;2.60;;;14.20;99.90;;;;;;5032169;28;20662;-85
2022/08/11 04:45:59;;;;;;;5.23;3.00;;;14.10;99.90;;;;;;5032445;28;20219;-86
2022/08/11 05:03:51;;;;;;;2.83;2.63;;;14.40;99.90;;;;;;5051603;28;20217;-86
2022/08/11 05:06:56;;;;;;;3.50;2.90;;;14.40;99.90;;;;;;5051515;28;20182;-86
2022/08/11 05:09:57;;;;;;;2.93;2.60;;;14.50;99.90;;;;;;5033763;28;20189;-86
2022/08/11 05:12:39;;;;;;;3.17;2.97;;;14.70;99.90;;;;;;5051524;28;20201;-86
2022/08/11 05:35:51;;;;;;;3.13;2.80;;;15.50;99.90;;;;;;5031553;28;20253;-86
2022/08/11 05:58:04;;;;;;;4.83;3.07;;;16.30;99.90;;;;;;5051315;28;20268;-86
2022/08/11 06:00:40;;;;;;;2.90;2.70;;;16.40;99.90;;;;;;5050912;28;20185;-86
2022/08/11 06:03:10;;;;;;;4.87;2.80;;;16.50;99.90;;;;;;5034291;28;20200;-86
2022/08/11 06:05:38;;;;;;;3.37;3.07;;;16.60;99.90;;;;;;5029817;28;20171;-86
2022/08/11 06:08:06;;;;;;;3.27;2.97;;;16.80;99.90;;;;;;5035717;28;20202;-86
2022/08/11 06:10:35;;;;;;;3.37;3.07;;;17.00;99.90;;;;;;5037638;28;20171;-86
2022/08/11 06:13:03;;;;;;;3.90;3.10;;;17.20;99.90;;;;;;5015652;28;20253;-86
2022/08/11 06:15:36;;;;;;;4.93;3.23;;;17.30;99.90;;;;;;5047508;28;20174;-86
2022/08/11 06:18:02;;;;;;;4.47;3.20;;;17.40;99.90;;;;;;5028313;28;20196;-86
2022/08/11 06:20:36;;;;;;;3.90;2.70;;;17.60;99.90;;;;;;5038418;28;20193;-86
2022/08/11 06:23:05;;;;;;;4.40;3.20;;;17.70;99.90;;;;;;5055363;28;20206;-86
2022/08/11 06:25:34;;;;;;;5.13;2.97;;;17.80;99.90;;;;;;5049286;28;20233;-86
2022/08/11 06:28:04;;;;;;;6.40;3.00;;;17.90;99.90;;;;;;5024320;28;20241;-86
2022/08/11 06:30:40;;;;;;;6.33;3.30;;;18.00;99.90;;;;;;5039151;28;20181;-86
2022/08/11 06:33:14;;;;;;;6.83;3.47;;;18.10;99.90;;;;;;5018363;28;20198;-86
2022/08/11 06:35:58;;;;;;;5.65;2.90;;;18.30;99.90;;;;;;5034494;28;20179;-86
2022/08/11 06:38:54;;;;;;;6.10;2.87;;;18.40;99.90;;;;;;5025580;28;20178;-86
2022/08/11 06:41:52;;;;;;;7.57;3.10;;;18.50;99.90;;;;;;5037410;28;20194;-86
2022/08/11 06:44:31;;;;;;;4.97;3.23;;;18.70;99.90;;;;;;5034460;28;20190;-86
2022/08/11 06:47:06;;;;;;;5.20;2.97;;;18.80;99.90;;;;;;5037447;28;20216;-85
2022/08/11 06:52:41;;;;;;;7.20;3.70;;;19.10;99.90;;;;;;5054356;28;20205;-86
2022/08/11 07:00:57;;;;;;;3.63;2.90;;;19.70;99.90;;;;;;5053284;28;20268;-86
2022/08/11 07:03:27;;;;;;;3.95;2.80;;;19.90;99.90;;;;;;5032349;28;20182;-86
2022/08/11 07:06:31;;;;;;;4.55;2.67;;;20.00;99.90;;;;;;5044852;28;20171;-86
2022/08/11 07:15:43;;;;;;;3.10;2.80;;;20.60;99.90;;;;;;5054762;28;20186;-86
2022/08/11 07:29:55;;;;;;;3.80;2.83;;;21.50;99.90;;;;;;5047333;28;20201;-86
2022/08/11 07:32:27;;;;;;;5.75;3.00;;;21.80;99.90;;;;;;5033065;28;20193;-86
2022/08/11 07:35:06;;;;;;;3.33;2.80;;;21.90;99.90;;;;;;5022857;28;20170;-89
2022/08/11 07:37:34;;;;;;;2.75;2.47;;;22.00;99.90;;;;;;5016451;28;20246;-86
2022/08/11 07:40:03;;;;;;;4.75;3.55;;;22.20;99.60;;;;;;5033045;28;20162;-86
2022/08/11 07:42:34;;;;;;;4.18;2.70;;;22.40;98.40;;;;;;5016741;28;20211;-87
2022/08/11 07:53:20;;;;;;;3.22;2.92;;;23.10;96.80;;;;;;5034446;28;20182;-87
2022/08/11 07:55:53;;;;;;;4.03;2.67;;;23.20;97.10;;;;;;5036135;28;20182;-86
2022/08/11 08:17:51;;;;;;;5.97;2.67;;;24.60;93.20;;;;;;5052198;28;20170;-86
2022/08/11 08:20:20;;;;;;;2.65;2.15;;;24.70;92.60;;;;;;5052649;28;20170;-86
2022/08/11 08:22:55;;;;;;;3.03;2.53;;;24.90;92.20;;;;;;5052152;28;20198;-86
2022/08/11 08:25:26;;;;;;;3.92;2.58;;;25.00;92.00;;;;;;5052022;28;20200;-87
2022/08/11 08:27:55;;;;;;;3.97;2.47;;;25.20;91.50;;;;;;5052122;28;20662;-87
2022/08/11 08:33:07;;;;;;;3.60;2.25;;;25.50;91.20;;;;;;5051798;28;20201;-86
2022/08/11 08:35:36;;;;;;;3.08;2.78;;;25.70;90.70;;;;;;5032098;28;20178;-86
2022/08/11 08:38:02;;;;;;;4.20;2.78;;;25.80;90.60;;;;;;5034386;28;20179;-87
2022/08/11 08:40:29;;;;;;;2.80;2.50;;;25.90;90.50;;;;;;5031893;28;20269;-87
2022/08/11 08:42:58;;;;;;;2.60;2.40;;;26.00;90.30;;;;;;5031889;28;20285;-86
2022/08/11 08:45:26;;;;;;;3.33;2.60;;;26.20;89.70;;;;;;5032037;28;20201;-86
2022/08/11 08:47:59;;;;;;;2.70;2.50;;;26.40;89.60;;;;;;5016056;28;20776;-87
2022/08/11 08:51:33;;;;;;;4.38;2.67;;;26.40;89.40;;;;;;5018607;28;20185;-87
2022/08/11 08:53:31;;;;;;;6.35;2.53;;;26.60;88.60;;;;;;5042151;28;20240;-87
2022/08/11 08:56:00;;;;;;;2.47;2.28;;;26.70;88.50;;;;;;5035364;28;20173;-86
2022/08/11 08:58:28;;;;;;;4.32;2.25;;;26.80;86.20;;;;;;5034850;28;20178;-87
2022/08/11 09:00:57;;;;;;;3.90;2.47;;;26.90;86.70;;;;;;5050609;28;20182;-86
2022/08/11 09:03:37;;;;;;;4.22;2.28;;;27.00;86.50;;;;;;5035232;28;20174;-87
2022/08/11 09:06:09;;;;;;;5.78;2.65;;;27.20;87.70;;;;;;5033716;28;20181;-87
2022/08/11 09:08:39;;;;;;;3.38;2.67;;;27.30;86.80;;;;;;5041619;28;20205;-87
2022/08/11 09:13:55;;;;;;;4.18;2.60;;;27.60;86.80;;;;;;5067887;28;20198;-87
2022/08/11 09:16:23;;;;;;;2.75;2.35;;;27.80;85.40;;;;;;5035201;28;20185;-87
2022/08/11 09:18:50;;;;;;;4.90;2.60;;;27.80;84.10;;;;;;5033272;28;20224;-87
2022/08/11 09:21:21;;;;;;;4.57;2.88;;;27.70;84.60;;;;;;5034335;28;20495;-87
2022/08/11 09:27:02;;;;;;;5.78;2.40;;;27.80;83.50;;;;;;5044066;28;20190;-86
2022/08/11 09:29:32;;;;;;;3.70;2.53;;;27.90;82.50;;;;;;5041338;28;20247;-87
2022/08/11 09:31:59;;;;;;;5.25;2.58;;;27.80;82.80;;;;;;5051141;28;20266;-87
2022/08/11 09:34:27;;;;;;;3.10;2.80;;;27.80;82.80;;;;;;5051406;28;20170;-86
2022/08/11 09:44:45;;;;;;;3.97;2.40;;;28.00;82.40;;;;;;5031538;28;20244;-87
2022/08/11 09:45:16;;;;;;;3.35;2.20;;;28.00;81.70;;;;;;5042043;28;20704;-86
2022/08/11 09:47:43;;;;;;;2.25;2.05;;;28.10;83.10;;;;;;5046935;28;20182;-86
2022/08/11 09:50:10;;;;;;;4.40;2.13;;;28.30;82.60;;;;;;5035534;28;20186;-86
2022/08/11 09:52:39;;;;;;;3.40;2.25;;;28.50;79.30;;;;;;5057335;28;20229;-87
2022/08/11 09:55:09;;;;;;;3.13;2.03;;;28.50;78.00;;;;;;5057457;28;20177;-86
2022/08/11 10:00:36;;;;;;;3.72;2.35;;;28.70;77.90;;;;;;5053773;28;20182;-87
2022/08/11 10:03:07;;;;;;;4.47;2.42;;;28.90;78.00;;;;;;5034186;28;20198;-86
2022/08/11 10:08:19;;;;;;;3.55;1.85;;;28.90;75.60;;;;;;5057652;28;20260;-87
2022/08/11 10:10:47;;;;;;;3.03;2.20;;;28.80;74.00;;;;;;5030210;28;20202;-87
2022/08/11 10:13:21;;;;;;;2.30;2.10;;;28.80;74.90;;;;;;5056703;28;20181;-87
2022/08/11 10:15:47;;;;;;;3.38;1.98;;;28.90;73.60;;;;;;5021066;28;20166;-87
2022/08/11 10:18:41;;;;;;;4.72;2.05;;;29.00;74.70;;;;;;5031406;28;20201;-87
2022/08/11 10:21:39;;;;;;;7.30;2.35;;;29.10;73.70;;;;;;5056311;28;20247;-87
2022/08/11 10:26:54;;;;;;;2.53;2.03;;;29.20;74.50;;;;;;5053320;28;20186;-87
2022/08/11 10:35:29;;;;;;;2.28;1.85;;;29.70;73.30;;;;;;5037301;28;20175;-87
2022/08/11 10:37:55;;;;;;;3.50;2.00;;;29.70;73.10;;;;;;5032623;28;20205;-87
2022/08/11 10:40:23;;;;;;;2.85;2.42;;;29.80;71.80;;;;;;5057821;28;20182;-87
2022/08/11 10:43:09;;;;;;;4.05;2.00;;;30.00;72.30;;;;;;5057365;28;20237;-87
2022/08/11 10:48:36;;;;;;;3.95;2.22;;;30.00;70.60;;;;;;5057799;28;20183;-87
2022/08/11 10:51:12;;;;;;;2.30;2.10;;;30.00;70.20;;;;;;5034849;28;20182;-87
2022/08/11 10:59:21;;;;;;;3.15;2.00;;;30.20;69.00;;;;;;5046180;28;20646;-87
2022/08/11 11:01:47;;;;;;;1.80;1.70;;;30.10;68.90;;;;;;5037453;28;20213;-87
2022/08/11 11:04:16;;;;;;;2.30;2.00;;;30.20;68.50;;;;;;5037155;28;20186;-87
2022/08/11 11:07:06;;;;;;;3.08;2.10;;;30.30;68.80;;;;;;5029563;28;20269;-87
2022/08/11 11:10:05;;;;;;;3.03;2.00;;;30.20;67.40;;;;;;5017605;28;20178;-87
2022/08/11 11:18:34;;;;;;;2.17;1.85;;;30.70;69.30;;;;;;5032830;28;20210;-87
2022/08/11 11:21:15;;;;;;;4.45;1.95;;;30.70;66.50;;;;;;5042838;28;20186;-87
2022/08/11 11:24:14;;;;;;;3.58;1.90;;;31.00;66.80;;;;;;5027647;28;20190;-87
2022/08/11 11:27:34;;;;;;;2.75;1.92;;;31.00;65.60;;;;;;5042634;28;20178;-88
2022/08/11 11:30:14;;;;;;;2.17;1.98;;;30.90;65.80;;;;;;5040600;28;20262;-87
2022/08/11 11:33:08;;;;;;;2.72;2.03;;;30.70;65.90;;;;;;5027551;28;20212;-87
2022/08/11 11:36:04;;;;;;;3.42;2.13;;;30.80;67.20;;;;;;5043086;28;20174;-87
2022/08/11 11:38:34;;;;;;;3.42;1.92;;;31.10;65.50;;;;;;5054138;28;20222;-87
2022/08/11 11:43:48;;;;;;;3.78;2.00;;;31.20;65.80;;;;;;5041990;28;20181;-87
2022/08/11 11:46:19;;;;;;;4.50;2.00;;;31.30;64.90;;;;;;5028512;28;20175;-87
2022/08/11 11:48:52;;;;;;;3.38;1.73;;;31.50;65.70;;;;;;5025785;28;20258;-87
2022/08/11 11:51:22;;;;;;;5.20;2.15;;;31.60;65.00;;;;;;5034074;28;20214;-87
2022/08/11 11:53:51;;;;;;;3.80;2.13;;;31.50;65.00;;;;;;5032050;28;20175;-87
2022/08/11 11:56:23;;;;;;;2.50;1.98;;;31.40;63.30;;;;;;5043913;28;20197;-87
2022/08/11 12:01:37;;;;;;;2.15;1.95;;;31.20;64.70;;;;;;5053858;28;20198;-87
2022/08/11 12:04:05;;;;;;;3.75;2.17;;;31.40;64.60;;;;;;5054251;28;20262;-87
2022/08/11 12:06:32;;;;;;;2.47;1.83;;;31.60;64.60;;;;;;5031530;28;20179;-89
2022/08/11 12:09:03;;;;;;;5.32;1.98;;;31.70;64.00;;;;;;5024641;28;20218;-87
2022/08/11 12:14:44;;;;;;;3.10;1.85;;;31.70;64.00;;;;;;5040741;28;20291;-88
2022/08/11 12:17:11;;;;;;;1.92;1.80;;;31.90;63.20;;;;;;5023164;28;20256;-87
2022/08/11 12:19:38;;;;;;;2.15;1.95;;;31.90;63.10;;;;;;5032191;28;20210;-87
2022/08/11 12:27:33;;;;;;;2.05;1.70;;;32.00;63.60;;;;;;5052560;28;20224;-87
2022/08/11 12:30:08;;;;;;;4.55;2.00;;;32.00;61.80;;;;;;5036168;28;20189;-90
2022/08/11 12:32:41;;;;;;;2.42;1.83;;;31.90;62.30;;;;;;5034900;28;20205;-88
2022/08/11 12:35:15;;;;;;;2.90;1.95;;;31.70;62.70;;;;;;5052842;28;20174;-88
2022/08/11 12:37:58;;;;;;;3.35;2.20;;;31.70;63.30;;;;;;5052371;28;20208;-88
2022/08/11 12:46:04;;;;;;;3.17;2.00;;;32.10;63.10;;;;;;5044394;28;20181;-88
2022/08/11 12:54:21;;;;;;;2.13;1.85;;;32.80;61.50;;;;;;5050689;28;20205;-88
2022/08/11 13:05:14;;;;;;;2.08;1.80;;;33.10;60.30;;;;;;5042833;28;20181;-88
2022/08/11 13:07:44;;;;;;;2.45;1.85;;;33.30;59.50;;;;;;5036251;28;20173;-88
2022/08/11 13:10:13;;;;;;;4.00;1.98;;;33.30;60.30;;;;;;5035443;28;20182;-88
2022/08/11 13:12:46;;;;;;;2.35;1.90;;;33.50;60.20;;;;;;5035859;28;20201;-88
2022/08/11 13:15:22;;;;;;;3.03;1.88;;;33.50;59.40;;;;;;5035084;28;20170;-88
2022/08/11 13:17:53;;;;;;;2.17;1.98;;;33.60;59.50;;;;;;5035763;28;20239;-89
2022/08/11 13:20:22;;;;;;;2.35;1.77;;;33.80;59.00;;;;;;5037633;28;20683;-88
2022/08/11 13:22:52;;;;;;;5.25;2.20;;;33.60;59.30;;;;;;5048946;28;20206;-88
2022/08/11 13:25:22;;;;;;;1.75;1.60;;;33.50;59.00;;;;;;5048772;28;20182;-88
2022/08/11 13:27:51;;;;;;;3.20;1.90;;;33.40;59.10;;;;;;5049423;28;20194;-89
2022/08/11 13:33:06;;;;;;;2.95;1.90;;;33.10;58.90;;;;;;5050625;28;20201;-88
2022/08/11 13:35:33;;;;;;;2.72;1.80;;;33.00;59.20;;;;;;5016065;28;20190;-88
2022/08/11 13:38:04;;;;;;;2.65;1.70;;;33.00;59.80;;;;;;5015517;28;20280;-88
2022/08/11 13:40:31;;;;;;;3.13;1.85;;;33.20;58.90;;;;;;5015206;28;20182;-88
2022/08/11 13:42:58;;;;;;;2.65;1.80;;;33.40;59.00;;;;;;5015865;28;20207;-88
2022/08/11 13:45:25;;;;;;;3.28;1.77;;;33.50;58.50;;;;;;5051008;28;20189;-89
2022/08/11 13:47:57;;;;;;;2.22;2.03;;;33.60;58.90;;;;;;5051419;28;20177;-88
2022/08/11 13:53:11;;;;;;;2.78;1.85;;;34.00;58.00;;;;;;5051880;28;20205;-89
2022/08/11 13:55:45;;;;;;;2.92;1.60;;;34.00;57.90;;;;;;5038298;28;20200;-89
2022/08/11 13:58:14;;;;;;;4.55;2.00;;;34.00;58.30;;;;;;5030250;28;20209;-89
2022/08/11 14:00:44;;;;;;;2.58;1.70;;;34.10;58.00;;;;;;5014413;28;20213;-89
2022/08/11 14:03:13;;;;;;;3.38;1.80;;;34.10;57.50;;;;;;5015035;28;20254;-89
2022/08/11 14:05:46;;;;;;;2.65;1.85;;;34.00;56.70;;;;;;5031308;28;20261;-89
2022/08/11 14:08:24;;;;;;;1.90;1.70;;;33.80;57.50;;;;;;5047085;28;20181;-89
2022/08/11 14:13:42;;;;;;;2.53;1.88;;;34.00;58.20;;;;;;5040159;28;20697;-89
2022/08/11 14:16:41;;;;;;;2.38;1.60;;;34.10;57.30;;;;;;5034630;28;20173;-89
2022/08/11 14:19:11;;;;;;;2.33;1.70;;;34.00;58.20;;;;;;5022587;28;20218;-89
2022/08/11 14:24:40;;;;;;;6.22;1.80;;;33.80;57.90;;;;;;5050701;28;20190;-89
2022/08/11 14:27:12;;;;;;;3.42;1.77;;;33.90;57.40;;;;;;5050156;28;20190;-89
2022/08/11 14:29:40;;;;;;;3.78;1.77;;;34.10;57.60;;;;;;5034010;28;20186;-89
2022/08/11 14:32:12;;;;;;;3.00;2.25;;;34.20;57.10;;;;;;5034452;28;20426;-89
2022/08/11 14:34:41;;;;;;;2.45;2.10;;;34.10;58.00;;;;;;5050774;28;20231;-89
2022/08/11 14:37:14;;;;;;;2.00;1.75;;;34.30;57.60;;;;;;5036760;28;20272;-89
2022/08/11 14:39:59;;;;;;;3.63;2.00;;;34.30;57.90;;;;;;5037972;28;20170;-89
2022/08/11 14:48:07;;;;;;;2.88;1.88;;;34.00;57.20;;;;;;5055994;28;20256;-90
2022/08/11 14:50:34;;;;;;;3.30;2.10;;;34.00;56.80;;;;;;5038524;28;20258;-89
2022/08/11 14:53:14;;;;;;;2.13;1.92;;;34.10;58.00;;;;;;5038640;28;20210;-90
2022/08/11 14:59:05;;;;;;;2.95;1.98;;;34.10;57.40;;;;;;5039491;28;20201;-87
2022/08/11 15:04:22;;;;;;;3.47;1.88;;;33.80;58.00;;;;;;5067119;28;20198;-87
2022/08/11 15:06:52;;;;;;;2.15;1.90;;;33.90;57.80;;;;;;5033059;28;20178;-88
2022/08/11 15:09:18;;;;;;;2.30;2.10;;;33.80;57.70;;;;;;5035399;28;20189;-78
2022/08/11 15:17:18;;;;;;;3.30;2.03;;;33.70;57.60;;;;;;5056114;28;20185;-88
2022/08/11 15:25:16;;;;;;;2.30;1.88;;;33.30;57.80;;;;;;5055836;28;20190;-88
2022/08/11 15:39:03;;;;;;;3.67;1.92;;;33.10;59.00;;;;;;5036006;28;20206;-88
2022/08/11 15:47:08;;;;;;;3.13;2.30;;;32.40;58.90;;;;;;5052046;28;20178;-88
2022/08/11 15:49:40;;;;;;;3.33;1.98;;;32.10;59.90;;;;;;5034007;28;20189;-87
2022/08/11 15:52:09;;;;;;;2.25;1.88;;;32.00;60.00;;;;;;5045095;28;20292;-84
2022/08/11 15:54:42;;;;;;;2.50;2.30;;;32.00;62.00;;;;;;5054294;28;20182;-91
2022/08/11 16:04:10;;;;;;;3.13;2.25;;;31.90;61.70;;;;;;5038390;28;20176;-88
2022/08/11 16:05:24;;;;;;;2.40;1.90;;;31.50;60.70;;;;;;5052270;28;20222;-88
2022/08/11 16:07:52;;;;;;;4.75;2.10;;;31.40;61.50;;;;;;5034783;28;20191;-89
2022/08/11 16:10:22;;;;;;;1.83;1.70;;;31.30;61.70;;;;;;5034640;28;20182;-87
2022/08/11 16:18:39;;;;;;;2.72;1.80;;;30.70;62.70;;;;;;5052483;28;20201;-89
2022/08/11 16:21:16;;;;;;;2.47;1.80;;;30.60;62.80;;;;;;5036305;28;20205;-89
2022/08/11 16:23:46;;;;;;;3.85;1.73;;;30.70;62.50;;;;;;5052453;28;20186;-89
2022/08/11 16:26:16;;;;;;;2.33;1.80;;;30.50;62.00;;;;;;5036197;28;20185;-89
2022/08/11 16:28:44;;;;;;;2.10;1.85;;;30.50;62.90;;;;;;5036138;28;20229;-88
2022/08/11 16:31:11;;;;;;;3.25;2.00;;;30.40;63.40;;;;;;5036002;28;20236;-89
2022/08/11 16:33:45;;;;;;;2.28;1.80;;;30.20;62.00;;;;;;5050891;28;20240;-89
2022/08/11 16:39:00;;;;;;;2.83;2.00;;;30.00;62.50;;;;;;5053231;28;20243;-89
2022/08/11 16:47:10;;;;;;;2.17;1.80;;;29.90;61.50;;;;;;5052773;28;20274;-89
2022/08/11 16:49:47;;;;;;;3.35;1.77;;;29.80;62.00;;;;;;5035806;28;20193;-89
2022/08/11 16:52:15;;;;;;;2.08;1.88;;;29.80;62.30;;;;;;5034429;28;20240;-89
2022/08/11 16:54:42;;;;;;;2.00;1.80;;;29.60;62.80;;;;;;5019043;28;20206;-88
2022/08/11 17:00:06;;;;;;;5.25;2.10;;;29.40;62.80;;;;;;5051619;28;20186;-89
2022/08/11 17:13:43;;;;;;;2.10;1.90;;;29.00;63.50;;;;;;5032541;28;20209;-89
2022/08/11 17:16:12;;;;;;;2.80;1.95;;;28.90;64.20;;;;;;5016155;28;20217;-88
2022/08/11 17:18:57;;;;;;;2.50;2.00;;;28.80;63.50;;;;;;5042770;28;20285;-88
2022/08/11 17:21:29;;;;;;;1.80;1.70;;;28.70;64.40;;;;;;5048703;28;20195;-88
2022/08/11 17:24:09;;;;;;;1.77;1.60;;;28.70;64.80;;;;;;5016523;28;20186;-88
2022/08/11 17:26:55;;;;;;;4.65;2.10;;;28.60;65.10;;;;;;5036846;28;20175;-88
2022/08/11 17:29:32;;;;;;;3.75;1.92;;;28.50;65.50;;;;;;5031907;28;20253;-88
2022/08/11 17:35:32;;;;;;;3.67;2.00;;;28.30;66.20;;;;;;5032262;28;20217;-88
2022/08/11 17:38:20;;;;;;;2.85;1.85;;;28.10;66.10;;;;;;5032178;28;20283;-88
2022/08/11 17:49:10;;;;;;;1.77;1.63;;;27.80;67.30;;;;;;5032218;28;20179;-88
2022/08/11 17:59:56;;;;;;;2.78;2.22;;;27.50;67.80;;;;;;5032114;28;20199;-89
2022/08/11 18:05:48;;;;;;;2.70;2.47;;;27.40;68.80;;;;;;5038146;28;20178;-89
